Terminal Aerodrome Forecast
Issued by NWS Paducah, KY

Home | Current Version | Previous Version | Text Only | Print | Product List | Glossary On
Versions: 1 2 3 4 5 6 7 8 9 10 11 12 13 14 15 16 17 18 19 20 21 22 23
000
FTUS43 KPAH 302000 AAA
TAFEVV
TAF AMD
KEVV 302020Z 3020/3118 17005KT 5SM -SHRA BR VCTS SCT030CB BKN080
     FM302200 20006KT 6SM -SHRA BR VCTS SCT015CB BKN040
     FM310000 19006KT P6SM -SHRA BKN035
     FM310600 20005KT 6SM -SHRA BR SCT015 BKN030 PROB30 3109/3115
      4SM TSRA BR BKN015CB
     FM311500 19006KT P6SM BKN030=

USA.gov is the U.S. government's official web portal to all federal, state and local government web resources and services.